sensor_id;sensor_type;location;lat;lon;timestamp;P1;durP1;ratioP1;P2;durP2;ratioP2
48487;SDS011;34289;48.572;13.378;2023-03-25T00:00:53;2.05;;;1.35;;
48487;SDS011;34289;48.572;13.378;2023-03-25T00:03:23;1.80;;;1.35;;
48487;SDS011;34289;48.572;13.378;2023-03-25T00:05:50;4.78;;;1.60;;
48487;SDS011;34289;48.572;13.378;2023-03-25T00:08:17;2.85;;;1.73;;
48487;SDS011;34289;48.572;13.378;2023-03-25T00:10:42;2.28;;;1.75;;
48487;SDS011;34289;48.572;13.378;2023-03-25T00:13:08;2.95;;;1.60;;
48487;SDS011;34289;48.572;13.378;2023-03-25T00:15:40;2.88;;;1.75;;
48487;SDS011;34289;48.572;13.378;2023-03-25T00:18:09;2.97;;;1.30;;
48487;SDS011;34289;48.572;13.378;2023-03-25T00:20:35;1.65;;;1.50;;
48487;SDS011;34289;48.572;13.378;2023-03-25T00:23:01;3.95;;;1.48;;
48487;SDS011;34289;48.572;13.378;2023-03-25T00:25:26;1.92;;;1.42;;
48487;SDS011;34289;48.572;13.378;2023-03-25T00:27:52;1.35;;;1.23;;
48487;SDS011;34289;48.572;13.378;2023-03-25T00:30:18;1.95;;;1.40;;
48487;SDS011;34289;48.572;13.378;2023-03-25T00:32:45;3.17;;;1.83;;
48487;SDS011;34289;48.572;13.378;2023-03-25T00:35:13;2.08;;;1.30;;
48487;SDS011;34289;48.572;13.378;2023-03-25T00:37:41;2.35;;;1.25;;
48487;SDS011;34289;48.572;13.378;2023-03-25T00:40:07;2.55;;;1.48;;
48487;SDS011;34289;48.572;13.378;2023-03-25T00:42:35;2.63;;;1.58;;
48487;SDS011;34289;48.572;13.378;2023-03-25T00:45:01;5.65;;;2.83;;
48487;SDS011;34289;48.572;13.378;2023-03-25T00:47:27;2.25;;;1.52;;
48487;SDS011;34289;48.572;13.378;2023-03-25T00:49:53;2.30;;;1.52;;
48487;SDS011;34289;48.572;13.378;2023-03-25T00:52:18;1.67;;;1.35;;
48487;SDS011;34289;48.572;13.378;2023-03-25T00:54:46;2.20;;;1.40;;
48487;SDS011;34289;48.572;13.378;2023-03-25T00:57:12;2.67;;;1.25;;
48487;SDS011;34289;48.572;13.378;2023-03-25T00:59:38;2.00;;;1.27;;
48487;SDS011;34289;48.572;13.378;2023-03-25T01:02:04;2.00;;;1.60;;
48487;SDS011;34289;48.572;13.378;2023-03-25T01:04:31;2.97;;;1.50;;
48487;SDS011;34289;48.572;13.378;2023-03-25T01:06:57;2.00;;;1.45;;
48487;SDS011;34289;48.572;13.378;2023-03-25T01:09:22;1.77;;;1.10;;
48487;SDS011;34289;48.572;13.378;2023-03-25T01:11:48;3.83;;;1.40;;
48487;SDS011;34289;48.572;13.378;2023-03-25T01:14:18;1.40;;;1.10;;
48487;SDS011;34289;48.572;13.378;2023-03-25T01:16:45;2.22;;;1.50;;
48487;SDS011;34289;48.572;13.378;2023-03-25T01:19:11;2.80;;;1.42;;
48487;SDS011;34289;48.572;13.378;2023-03-25T01:21:37;3.33;;;1.50;;
48487;SDS011;34289;48.572;13.378;2023-03-25T01:24:03;1.92;;;1.50;;
48487;SDS011;34289;48.572;13.378;2023-03-25T01:26:30;1.73;;;1.35;;
48487;SDS011;34289;48.572;13.378;2023-03-25T01:28:56;2.80;;;1.58;;
48487;SDS011;34289;48.572;13.378;2023-03-25T01:31:21;4.18;;;1.50;;
48487;SDS011;34289;48.572;13.378;2023-03-25T01:33:47;2.42;;;1.58;;
48487;SDS011;34289;48.572;13.378;2023-03-25T01:36:13;4.20;;;1.33;;
48487;SDS011;34289;48.572;13.378;2023-03-25T01:38:39;1.58;;;1.40;;
48487;SDS011;34289;48.572;13.378;2023-03-25T01:41:06;1.63;;;1.40;;
48487;SDS011;34289;48.572;13.378;2023-03-25T01:43:33;2.78;;;1.90;;
48487;SDS011;34289;48.572;13.378;2023-03-25T01:45:59;6.22;;;1.38;;
48487;SDS011;34289;48.572;13.378;2023-03-25T01:50:58;1.38;;;1.23;;
48487;SDS011;34289;48.572;13.378;2023-03-25T01:53:29;2.03;;;1.80;;
48487;SDS011;34289;48.572;13.378;2023-03-25T01:55:56;3.25;;;1.70;;
48487;SDS011;34289;48.572;13.378;2023-03-25T01:58:26;1.83;;;1.40;;
48487;SDS011;34289;48.572;13.378;2023-03-25T02:00:55;3.88;;;1.30;;
48487;SDS011;34289;48.572;13.378;2023-03-25T02:03:21;1.90;;;1.48;;
48487;SDS011;34289;48.572;13.378;2023-03-25T02:06:08;4.82;;;1.88;;
48487;SDS011;34289;48.572;13.378;2023-03-25T02:08:39;2.63;;;1.52;;
48487;SDS011;34289;48.572;13.378;2023-03-25T02:11:06;2.20;;;1.73;;
48487;SDS011;34289;48.572;13.378;2023-03-25T02:13:33;1.55;;;1.45;;
48487;SDS011;34289;48.572;13.378;2023-03-25T02:18:58;2.25;;;1.48;;
48487;SDS011;34289;48.572;13.378;2023-03-25T02:40:34;7.32;;;1.98;;
48487;SDS011;34289;48.572;13.378;2023-03-25T02:43:26;4.93;;;1.83;;
48487;SDS011;34289;48.572;13.378;2023-03-25T02:45:59;4.45;;;1.90;;
48487;SDS011;34289;48.572;13.378;2023-03-25T02:48:41;3.85;;;1.85;;
48487;SDS011;34289;48.572;13.378;2023-03-25T02:51:17;3.08;;;1.77;;
48487;SDS011;34289;48.572;13.378;2023-03-25T02:53:52;3.38;;;1.50;;
48487;SDS011;34289;48.572;13.378;2023-03-25T02:56:20;2.38;;;1.63;;
48487;SDS011;34289;48.572;13.378;2023-03-25T02:58:49;5.57;;;1.95;;
48487;SDS011;34289;48.572;13.378;2023-03-25T03:01:19;3.35;;;1.30;;
48487;SDS011;34289;48.572;13.378;2023-03-25T03:03:46;3.25;;;1.70;;
48487;SDS011;34289;48.572;13.378;2023-03-25T03:06:14;1.90;;;1.45;;
48487;SDS011;34289;48.572;13.378;2023-03-25T03:19:54;4.57;;;1.80;;
48487;SDS011;34289;48.572;13.378;2023-03-25T03:30:27;2.10;;;1.27;;
48487;SDS011;34289;48.572;13.378;2023-03-25T03:35:45;3.35;;;1.40;;
48487;SDS011;34289;48.572;13.378;2023-03-25T03:38:16;5.75;;;1.38;;
48487;SDS011;34289;48.572;13.378;2023-03-25T03:40:47;1.73;;;1.35;;
48487;SDS011;34289;48.572;13.378;2023-03-25T03:44:00;3.85;;;1.40;;
48487;SDS011;34289;48.572;13.378;2023-03-25T03:46:14;5.00;;;1.52;;
48487;SDS011;34289;48.572;13.378;2023-03-25T03:49:01;1.52;;;1.40;;
48487;SDS011;34289;48.572;13.378;2023-03-25T03:51:35;3.63;;;1.40;;
48487;SDS011;34289;48.572;13.378;2023-03-25T03:56:41;4.72;;;1.92;;
48487;SDS011;34289;48.572;13.378;2023-03-25T04:02:06;2.03;;;1.20;;
48487;SDS011;34289;48.572;13.378;2023-03-25T04:04:40;2.97;;;1.55;;
48487;SDS011;34289;48.572;13.378;2023-03-25T04:09:53;8.68;;;1.85;;
48487;SDS011;34289;48.572;13.378;2023-03-25T04:12:27;3.40;;;1.35;;
48487;SDS011;34289;48.572;13.378;2023-03-25T04:14:55;3.38;;;1.40;;
48487;SDS011;34289;48.572;13.378;2023-03-25T04:17:24;4.38;;;1.17;;
48487;SDS011;34289;48.572;13.378;2023-03-25T04:19:54;3.10;;;1.23;;
48487;SDS011;34289;48.572;13.378;2023-03-25T04:22:20;3.45;;;1.50;;
48487;SDS011;34289;48.572;13.378;2023-03-25T04:24:46;3.30;;;1.13;;
48487;SDS011;34289;48.572;13.378;2023-03-25T04:27:16;4.25;;;1.50;;
48487;SDS011;34289;48.572;13.378;2023-03-25T04:29:42;4.47;;;1.65;;
48487;SDS011;34289;48.572;13.378;2023-03-25T04:32:11;4.07;;;1.38;;
48487;SDS011;34289;48.572;13.378;2023-03-25T04:34:37;2.35;;;1.35;;
48487;SDS011;34289;48.572;13.378;2023-03-25T04:37:03;5.57;;;1.33;;
48487;SDS011;34289;48.572;13.378;2023-03-25T04:39:29;5.65;;;1.75;;
48487;SDS011;34289;48.572;13.378;2023-03-25T04:41:56;4.38;;;1.40;;
48487;SDS011;34289;48.572;13.378;2023-03-25T04:44:25;3.28;;;1.40;;
48487;SDS011;34289;48.572;13.378;2023-03-25T04:46:52;6.88;;;1.85;;
48487;SDS011;34289;48.572;13.378;2023-03-25T04:49:22;2.42;;;1.00;;
48487;SDS011;34289;48.572;13.378;2023-03-25T04:51:49;3.35;;;1.27;;
48487;SDS011;34289;48.572;13.378;2023-03-25T04:54:16;5.80;;;1.20;;
48487;SDS011;34289;48.572;13.378;2023-03-25T04:56:42;2.55;;;1.20;;
48487;SDS011;34289;48.572;13.378;2023-03-25T04:59:08;2.47;;;1.10;;
48487;SDS011;34289;48.572;13.378;2023-03-25T05:01:34;2.50;;;1.20;;
48487;SDS011;34289;48.572;13.378;2023-03-25T05:04:06;3.15;;;1.10;;
48487;SDS011;34289;48.572;13.378;2023-03-25T05:06:37;2.25;;;1.40;;
48487;SDS011;34289;48.572;13.378;2023-03-25T05:09:04;3.17;;;1.27;;
48487;SDS011;34289;48.572;13.378;2023-03-25T05:11:32;2.72;;;1.40;;
48487;SDS011;34289;48.572;13.378;2023-03-25T05:14:01;2.60;;;1.35;;
48487;SDS011;34289;48.572;13.378;2023-03-25T05:16:27;1.98;;;1.23;;
48487;SDS011;34289;48.572;13.378;2023-03-25T05:18:53;2.47;;;1.15;;
48487;SDS011;34289;48.572;13.378;2023-03-25T05:21:18;4.60;;;1.20;;
48487;SDS011;34289;48.572;13.378;2023-03-25T05:23:44;2.50;;;1.00;;
48487;SDS011;34289;48.572;13.378;2023-03-25T05:26:10;4.07;;;1.58;;
48487;SDS011;34289;48.572;13.378;2023-03-25T05:28:36;2.70;;;1.10;;
48487;SDS011;34289;48.572;13.378;2023-03-25T05:31:03;2.20;;;1.05;;
48487;SDS011;34289;48.572;13.378;2023-03-25T05:33:32;1.73;;;1.00;;
48487;SDS011;34289;48.572;13.378;2023-03-25T05:36:01;1.52;;;1.00;;
48487;SDS011;34289;48.572;13.378;2023-03-25T05:38:30;4.50;;;1.38;;
48487;SDS011;34289;48.572;13.378;2023-03-25T05:40:57;3.28;;;1.35;;
48487;SDS011;34289;48.572;13.378;2023-03-25T05:43:24;7.10;;;1.20;;
48487;SDS011;34289;48.572;13.378;2023-03-25T05:45:50;3.65;;;1.20;;
48487;SDS011;34289;48.572;13.378;2023-03-25T05:48:15;3.85;;;1.83;;
48487;SDS011;34289;48.572;13.378;2023-03-25T05:50:42;4.00;;;1.10;;
48487;SDS011;34289;48.572;13.378;2023-03-25T05:53:16;2.25;;;1.30;;
48487;SDS011;34289;48.572;13.378;2023-03-25T05:55:42;3.88;;;1.13;;
48487;SDS011;34289;48.572;13.378;2023-03-25T05:58:07;4.28;;;1.33;;
48487;SDS011;34289;48.572;13.378;2023-03-25T06:00:33;1.88;;;0.93;;
48487;SDS011;34289;48.572;13.378;2023-03-25T06:02:59;4.95;;;1.58;;
48487;SDS011;34289;48.572;13.378;2023-03-25T06:05:25;3.95;;;1.30;;
48487;SDS011;34289;48.572;13.378;2023-03-25T06:07:53;2.38;;;1.30;;
48487;SDS011;34289;48.572;13.378;2023-03-25T06:10:20;7.13;;;1.40;;
48487;SDS011;34289;48.572;13.378;2023-03-25T06:12:46;1.85;;;1.10;;
48487;SDS011;34289;48.572;13.378;2023-03-25T06:15:13;3.85;;;1.30;;
48487;SDS011;34289;48.572;13.378;2023-03-25T06:17:42;3.33;;;1.25;;
48487;SDS011;34289;48.572;13.378;2023-03-25T06:20:10;2.47;;;1.15;;
48487;SDS011;34289;48.572;13.378;2023-03-25T06:22:40;1.85;;;1.13;;
48487;SDS011;34289;48.572;13.378;2023-03-25T06:25:08;8.88;;;1.40;;
48487;SDS011;34289;48.572;13.378;2023-03-25T06:27:43;4.60;;;1.13;;
48487;SDS011;34289;48.572;13.378;2023-03-25T06:30:12;4.53;;;1.13;;
48487;SDS011;34289;48.572;13.378;2023-03-25T06:32:40;5.95;;;1.13;;
48487;SDS011;34289;48.572;13.378;2023-03-25T06:35:06;2.33;;;1.08;;
48487;SDS011;34289;48.572;13.378;2023-03-25T06:37:34;6.38;;;1.70;;
48487;SDS011;34289;48.572;13.378;2023-03-25T06:40:00;2.28;;;1.10;;
48487;SDS011;34289;48.572;13.378;2023-03-25T06:42:27;5.78;;;1.10;;
48487;SDS011;34289;48.572;13.378;2023-03-25T06:44:53;9.57;;;1.40;;
48487;SDS011;34289;48.572;13.378;2023-03-25T06:47:19;4.85;;;1.27;;
48487;SDS011;34289;48.572;13.378;2023-03-25T06:49:45;3.75;;;1.55;;
48487;SDS011;34289;48.572;13.378;2023-03-25T06:52:11;3.03;;;1.25;;
48487;SDS011;34289;48.572;13.378;2023-03-25T06:54:37;4.35;;;1.08;;
48487;SDS011;34289;48.572;13.378;2023-03-25T06:57:03;3.78;;;1.30;;
48487;SDS011;34289;48.572;13.378;2023-03-25T06:59:29;5.60;;;1.15;;
48487;SDS011;34289;48.572;13.378;2023-03-25T07:01:55;3.78;;;1.48;;
48487;SDS011;34289;48.572;13.378;2023-03-25T07:04:21;3.10;;;1.20;;
48487;SDS011;34289;48.572;13.378;2023-03-25T07:06:47;5.22;;;1.50;;
48487;SDS011;34289;48.572;13.378;2023-03-25T07:09:13;4.38;;;1.30;;
48487;SDS011;34289;48.572;13.378;2023-03-25T07:11:39;6.88;;;1.27;;
48487;SDS011;34289;48.572;13.378;2023-03-25T07:14:05;2.40;;;0.90;;
48487;SDS011;34289;48.572;13.378;2023-03-25T07:16:30;5.90;;;1.30;;
48487;SDS011;34289;48.572;13.378;2023-03-25T07:18:56;3.63;;;1.45;;
48487;SDS011;34289;48.572;13.378;2023-03-25T07:21:23;2.38;;;1.17;;
48487;SDS011;34289;48.572;13.378;2023-03-25T07:23:49;8.63;;;1.45;;
48487;SDS011;34289;48.572;13.378;2023-03-25T07:26:16;1.98;;;0.73;;
48487;SDS011;34289;48.572;13.378;2023-03-25T07:28:42;3.85;;;1.20;;
48487;SDS011;34289;48.572;13.378;2023-03-25T07:31:09;3.45;;;1.02;;
48487;SDS011;34289;48.572;13.378;2023-03-25T07:33:36;3.92;;;0.93;;
48487;SDS011;34289;48.572;13.378;2023-03-25T07:36:03;3.35;;;1.10;;
48487;SDS011;34289;48.572;13.378;2023-03-25T07:38:30;5.65;;;1.17;;
48487;SDS011;34289;48.572;13.378;2023-03-25T07:40:56;3.58;;;1.02;;
48487;SDS011;34289;48.572;13.378;2023-03-25T07:43:22;2.38;;;1.10;;
48487;SDS011;34289;48.572;13.378;2023-03-25T07:45:47;2.85;;;1.02;;
48487;SDS011;34289;48.572;13.378;2023-03-25T07:48:13;3.58;;;1.10;;
48487;SDS011;34289;48.572;13.378;2023-03-25T07:50:40;4.03;;;0.90;;
48487;SDS011;34289;48.572;13.378;2023-03-25T07:53:07;9.05;;;1.13;;
48487;SDS011;34289;48.572;13.378;2023-03-25T07:55:33;2.17;;;0.80;;
48487;SDS011;34289;48.572;13.378;2023-03-25T07:57:58;2.25;;;0.85;;
48487;SDS011;34289;48.572;13.378;2023-03-25T08:00:26;1.75;;;0.80;;
48487;SDS011;34289;48.572;13.378;2023-03-25T08:02:53;4.57;;;1.10;;
48487;SDS011;34289;48.572;13.378;2023-03-25T08:05:18;6.57;;;1.10;;
48487;SDS011;34289;48.572;13.378;2023-03-25T08:07:48;1.80;;;0.85;;
48487;SDS011;34289;48.572;13.378;2023-03-25T08:10:14;1.75;;;0.95;;
48487;SDS011;34289;48.572;13.378;2023-03-25T08:12:41;2.92;;;1.05;;
48487;SDS011;34289;48.572;13.378;2023-03-25T08:15:08;5.50;;;0.80;;
48487;SDS011;34289;48.572;13.378;2023-03-25T08:17:35;4.82;;;1.15;;
48487;SDS011;34289;48.572;13.378;2023-03-25T08:20:01;2.58;;;0.93;;
48487;SDS011;34289;48.572;13.378;2023-03-25T08:22:29;1.98;;;0.70;;
48487;SDS011;34289;48.572;13.378;2023-03-25T08:24:55;10.25;;;2.85;;
48487;SDS011;34289;48.572;13.378;2023-03-25T08:27:21;3.13;;;1.10;;
48487;SDS011;34289;48.572;13.378;2023-03-25T08:29:47;3.10;;;1.10;;
48487;SDS011;34289;48.572;13.378;2023-03-25T08:32:20;3.17;;;1.13;;
48487;SDS011;34289;48.572;13.378;2023-03-25T08:34:45;2.28;;;0.88;;
48487;SDS011;34289;48.572;13.378;2023-03-25T08:37:11;2.05;;;0.82;;
48487;SDS011;34289;48.572;13.378;2023-03-25T08:39:39;2.78;;;0.85;;
48487;SDS011;34289;48.572;13.378;2023-03-25T08:42:06;3.60;;;1.02;;
48487;SDS011;34289;48.572;13.378;2023-03-25T08:44:33;1.67;;;0.90;;
48487;SDS011;34289;48.572;13.378;2023-03-25T08:46:59;1.33;;;1.00;;
48487;SDS011;34289;48.572;13.378;2023-03-25T08:49:25;3.70;;;0.90;;
48487;SDS011;34289;48.572;13.378;2023-03-25T08:51:51;3.05;;;1.10;;
48487;SDS011;34289;48.572;13.378;2023-03-25T08:54:16;1.90;;;0.93;;
48487;SDS011;34289;48.572;13.378;2023-03-25T08:56:42;1.05;;;0.88;;
48487;SDS011;34289;48.572;13.378;2023-03-25T08:59:08;3.58;;;1.17;;
48487;SDS011;34289;48.572;13.378;2023-03-25T09:01:33;3.03;;;1.00;;
48487;SDS011;34289;48.572;13.378;2023-03-25T09:03:59;2.95;;;0.90;;
48487;SDS011;34289;48.572;13.378;2023-03-25T09:06:25;2.75;;;0.90;;
48487;SDS011;34289;48.572;13.378;2023-03-25T09:08:50;2.78;;;1.05;;
48487;SDS011;34289;48.572;13.378;2023-03-25T09:11:16;4.32;;;1.00;;
48487;SDS011;34289;48.572;13.378;2023-03-25T09:13:42;2.17;;;0.85;;
48487;SDS011;34289;48.572;13.378;2023-03-25T09:16:08;3.80;;;1.10;;
48487;SDS011;34289;48.572;13.378;2023-03-25T09:18:34;3.60;;;1.45;;
48487;SDS011;34289;48.572;13.378;2023-03-25T09:21:00;4.10;;;1.15;;
48487;SDS011;34289;48.572;13.378;2023-03-25T09:23:26;4.15;;;1.75;;
48487;SDS011;34289;48.572;13.378;2023-03-25T09:25:52;1.48;;;0.80;;
48487;SDS011;34289;48.572;13.378;2023-03-25T09:28:18;2.17;;;0.80;;
48487;SDS011;34289;48.572;13.378;2023-03-25T09:30:44;2.10;;;1.00;;
48487;SDS011;34289;48.572;13.378;2023-03-25T09:33:10;1.92;;;1.00;;
48487;SDS011;34289;48.572;13.378;2023-03-25T09:35:36;2.25;;;0.90;;
48487;SDS011;34289;48.572;13.378;2023-03-25T09:38:04;4.72;;;1.00;;
48487;SDS011;34289;48.572;13.378;2023-03-25T09:40:30;2.30;;;0.82;;
48487;SDS011;34289;48.572;13.378;2023-03-25T09:46:05;7.18;;;1.42;;
48487;SDS011;34289;48.572;13.378;2023-03-25T09:48:39;1.50;;;0.82;;
48487;SDS011;34289;48.572;13.378;2023-03-25T09:53:45;1.90;;;0.70;;
48487;SDS011;34289;48.572;13.378;2023-03-25T09:56:15;1.48;;;0.75;;
48487;SDS011;34289;48.572;13.378;2023-03-25T09:58:45;3.08;;;1.25;;
48487;SDS011;34289;48.572;13.378;2023-03-25T10:07:00;1.70;;;0.70;;
48487;SDS011;34289;48.572;13.378;2023-03-25T10:09:41;3.70;;;1.10;;
48487;SDS011;34289;48.572;13.378;2023-03-25T10:20:57;1.73;;;0.70;;
48487;SDS011;34289;48.572;13.378;2023-03-25T10:24:12;2.30;;;1.10;;
48487;SDS011;34289;48.572;13.378;2023-03-25T10:26:26;2.40;;;0.90;;
48487;SDS011;34289;48.572;13.378;2023-03-25T10:29:13;3.00;;;0.80;;
48487;SDS011;34289;48.572;13.378;2023-03-25T10:31:55;2.53;;;0.70;;
48487;SDS011;34289;48.572;13.378;2023-03-25T10:35:08;4.80;;;0.73;;
48487;SDS011;34289;48.572;13.378;2023-03-25T10:37:26;1.98;;;0.70;;
48487;SDS011;34289;48.572;13.378;2023-03-25T10:39:56;4.00;;;0.65;;
48487;SDS011;34289;48.572;13.378;2023-03-25T10:42:38;1.98;;;0.70;;
48487;SDS011;34289;48.572;13.378;2023-03-25T10:45:12;3.75;;;0.85;;
48487;SDS011;34289;48.572;13.378;2023-03-25T10:47:39;2.85;;;0.98;;
48487;SDS011;34289;48.572;13.378;2023-03-25T10:50:12;3.45;;;0.80;;
48487;SDS011;34289;48.572;13.378;2023-03-25T10:52:40;2.38;;;0.70;;
48487;SDS011;34289;48.572;13.378;2023-03-25T10:55:18;3.08;;;0.80;;
48487;SDS011;34289;48.572;13.378;2023-03-25T10:57:48;1.77;;;0.68;;
48487;SDS011;34289;48.572;13.378;2023-03-25T11:00:15;1.65;;;0.70;;
48487;SDS011;34289;48.572;13.378;2023-03-25T11:02:42;1.48;;;0.70;;
48487;SDS011;34289;48.572;13.378;2023-03-25T11:05:09;3.47;;;1.00;;
48487;SDS011;34289;48.572;13.378;2023-03-25T11:07:40;4.38;;;0.90;;
48487;SDS011;34289;48.572;13.378;2023-03-25T11:12:38;1.20;;;0.73;;
48487;SDS011;34289;48.572;13.378;2023-03-25T11:15:51;2.50;;;0.93;;
48487;SDS011;34289;48.572;13.378;2023-03-25T11:17:59;4.30;;;0.70;;
48487;SDS011;34289;48.572;13.378;2023-03-25T11:20:30;1.08;;;0.63;;
48487;SDS011;34289;48.572;13.378;2023-03-25T11:23:24;3.83;;;0.70;;
48487;SDS011;34289;48.572;13.378;2023-03-25T11:25:47;1.65;;;0.75;;
48487;SDS011;34289;48.572;13.378;2023-03-25T11:28:18;2.05;;;0.82;;
48487;SDS011;34289;48.572;13.378;2023-03-25T11:33:41;1.35;;;0.77;;
48487;SDS011;34289;48.572;13.378;2023-03-25T11:36:19;1.70;;;0.80;;
48487;SDS011;34289;48.572;13.378;2023-03-25T11:38:58;3.92;;;0.95;;
48487;SDS011;34289;48.572;13.378;2023-03-25T11:41:54;1.67;;;0.77;;
48487;SDS011;34289;48.572;13.378;2023-03-25T11:44:29;0.82;;;0.50;;
48487;SDS011;34289;48.572;13.378;2023-03-25T11:47:03;1.42;;;0.90;;
48487;SDS011;34289;48.572;13.378;2023-03-25T11:49:33;1.65;;;0.75;;
48487;SDS011;34289;48.572;13.378;2023-03-25T11:52:04;2.47;;;0.73;;
48487;SDS011;34289;48.572;13.378;2023-03-25T11:54:30;1.20;;;0.70;;
48487;SDS011;34289;48.572;13.378;2023-03-25T11:56:58;0.65;;;0.50;;
48487;SDS011;34289;48.572;13.378;2023-03-25T11:59:34;0.75;;;0.60;;
48487;SDS011;34289;48.572;13.378;2023-03-25T12:02:15;1.58;;;0.70;;
48487;SDS011;34289;48.572;13.378;2023-03-25T12:04:57;0.50;;;0.50;;
48487;SDS011;34289;48.572;13.378;2023-03-25T12:07:26;0.30;;;0.30;;
48487;SDS011;34289;48.572;13.378;2023-03-25T12:09:54;5.25;;;0.70;;
48487;SDS011;34289;48.572;13.378;2023-03-25T12:15:10;0.82;;;0.40;;
48487;SDS011;34289;48.572;13.378;2023-03-25T12:20:46;3.40;;;0.63;;
48487;SDS011;34289;48.572;13.378;2023-03-25T12:34:08;1.13;;;0.50;;
48487;SDS011;34289;48.572;13.378;2023-03-25T12:47:28;1.55;;;0.60;;
48487;SDS011;34289;48.572;13.378;2023-03-25T13:06:34;1.98;;;0.63;;
48487;SDS011;34289;48.572;13.378;2023-03-25T13:11:56;2.00;;;0.60;;
48487;SDS011;34289;48.572;13.378;2023-03-25T13:14:27;2.88;;;0.60;;
48487;SDS011;34289;48.572;13.378;2023-03-25T13:17:20;1.50;;;0.90;;
48487;SDS011;34289;48.572;13.378;2023-03-25T13:19:52;1.23;;;0.80;;
48487;SDS011;34289;48.572;13.378;2023-03-25T13:22:23;2.45;;;0.90;;
48487;SDS011;34289;48.572;13.378;2023-03-25T13:24:54;1.00;;;0.60;;
48487;SDS011;34289;48.572;13.378;2023-03-25T13:27:23;2.65;;;0.70;;
48487;SDS011;34289;48.572;13.378;2023-03-25T13:29:51;2.20;;;0.63;;
48487;SDS011;34289;48.572;13.378;2023-03-25T13:35:33;1.60;;;0.60;;
48487;SDS011;34289;48.572;13.378;2023-03-25T13:38:05;0.77;;;0.57;;
48487;SDS011;34289;48.572;13.378;2023-03-25T13:40:51;0.77;;;0.50;;
48487;SDS011;34289;48.572;13.378;2023-03-25T13:43:35;1.27;;;0.60;;
48487;SDS011;34289;48.572;13.378;2023-03-25T13:46:11;0.93;;;0.60;;
48487;SDS011;34289;48.572;13.378;2023-03-25T13:48:42;1.25;;;0.65;;
48487;SDS011;34289;48.572;13.378;2023-03-25T13:51:14;4.32;;;1.00;;
48487;SDS011;34289;48.572;13.378;2023-03-25T13:53:45;1.08;;;0.60;;
48487;SDS011;34289;48.572;13.378;2023-03-25T13:59:19;2.22;;;0.60;;
48487;SDS011;34289;48.572;13.378;2023-03-25T14:01:55;1.15;;;0.68;;
48487;SDS011;34289;48.572;13.378;2023-03-25T14:07:39;0.68;;;0.68;;
48487;SDS011;34289;48.572;13.378;2023-03-25T14:10:18;0.93;;;0.70;;
48487;SDS011;34289;48.572;13.378;2023-03-25T14:12:52;2.22;;;0.80;;
48487;SDS011;34289;48.572;13.378;2023-03-25T14:15:22;2.78;;;0.85;;
48487;SDS011;34289;48.572;13.378;2023-03-25T14:17:54;1.42;;;0.60;;
48487;SDS011;34289;48.572;13.378;2023-03-25T14:20:27;2.78;;;0.90;;
48487;SDS011;34289;48.572;13.378;2023-03-25T14:22:58;3.65;;;1.00;;
48487;SDS011;34289;48.572;13.378;2023-03-25T14:25:33;1.42;;;0.90;;
48487;SDS011;34289;48.572;13.378;2023-03-25T14:28:03;3.67;;;1.00;;
48487;SDS011;34289;48.572;13.378;2023-03-25T14:30:31;0.90;;;0.75;;
48487;SDS011;34289;48.572;13.378;2023-03-25T14:32:58;1.40;;;0.82;;
48487;SDS011;34289;48.572;13.378;2023-03-25T14:43:17;1.77;;;0.70;;
48487;SDS011;34289;48.572;13.378;2023-03-25T14:45:51;3.55;;;1.00;;
48487;SDS011;34289;48.572;13.378;2023-03-25T14:48:37;1.55;;;0.82;;
48487;SDS011;34289;48.572;13.378;2023-03-25T14:51:17;3.33;;;1.00;;
48487;SDS011;34289;48.572;13.378;2023-03-25T14:53:53;0.75;;;0.75;;
48487;SDS011;34289;48.572;13.378;2023-03-25T14:56:42;1.25;;;0.88;;
48487;SDS011;34289;48.572;13.378;2023-03-25T14:59:27;1.40;;;0.95;;
48487;SDS011;34289;48.572;13.378;2023-03-25T15:02:08;0.80;;;0.80;;
48487;SDS011;34289;48.572;13.378;2023-03-25T15:04:41;1.45;;;0.90;;
48487;SDS011;34289;48.572;13.378;2023-03-25T15:07:14;1.80;;;1.05;;
48487;SDS011;34289;48.572;13.378;2023-03-25T15:09:48;3.72;;;1.13;;
48487;SDS011;34289;48.572;13.378;2023-03-25T15:12:17;3.33;;;1.00;;
48487;SDS011;34289;48.572;13.378;2023-03-25T15:14:45;1.80;;;1.10;;
48487;SDS011;34289;48.572;13.378;2023-03-25T15:17:37;1.83;;;1.10;;
48487;SDS011;34289;48.572;13.378;2023-03-25T15:22:33;2.92;;;0.75;;
48487;SDS011;34289;48.572;13.378;2023-03-25T15:24:59;2.35;;;0.80;;
48487;SDS011;34289;48.572;13.378;2023-03-25T15:30:49;1.48;;;0.95;;
48487;SDS011;34289;48.572;13.378;2023-03-25T15:36:24;0.82;;;0.60;;
48487;SDS011;34289;48.572;13.378;2023-03-25T15:41:35;1.35;;;0.90;;
48487;SDS011;34289;48.572;13.378;2023-03-25T15:53:16;1.02;;;0.90;;
48487;SDS011;34289;48.572;13.378;2023-03-25T15:55:54;1.60;;;0.80;;
48487;SDS011;34289;48.572;13.378;2023-03-25T16:00:55;0.68;;;0.60;;
48487;SDS011;34289;48.572;13.378;2023-03-25T16:03:32;1.20;;;0.80;;
48487;SDS011;34289;48.572;13.378;2023-03-25T16:05:59;1.00;;;0.80;;
48487;SDS011;34289;48.572;13.378;2023-03-25T16:13:44;0.75;;;0.70;;
48487;SDS011;34289;48.572;13.378;2023-03-25T16:16:11;0.80;;;0.80;;
48487;SDS011;34289;48.572;13.378;2023-03-25T16:18:42;1.05;;;0.63;;
48487;SDS011;34289;48.572;13.378;2023-03-25T16:21:10;1.05;;;0.80;;
48487;SDS011;34289;48.572;13.378;2023-03-25T16:23:36;0.98;;;0.80;;
48487;SDS011;34289;48.572;13.378;2023-03-25T16:26:03;1.67;;;0.88;;
48487;SDS011;34289;48.572;13.378;2023-03-25T16:28:34;2.55;;;0.90;;
48487;SDS011;34289;48.572;13.378;2023-03-25T16:31:09;2.67;;;0.80;;
48487;SDS011;34289;48.572;13.378;2023-03-25T16:33:52;0.90;;;0.90;;
48487;SDS011;34289;48.572;13.378;2023-03-25T16:36:23;2.05;;;0.80;;
48487;SDS011;34289;48.572;13.378;2023-03-25T16:38:49;1.55;;;1.00;;
48487;SDS011;34289;48.572;13.378;2023-03-25T16:41:15;2.53;;;0.90;;
48487;SDS011;34289;48.572;13.378;2023-03-25T16:43:41;8.40;;;1.23;;
48487;SDS011;34289;48.572;13.378;2023-03-25T16:46:08;1.23;;;0.75;;
48487;SDS011;34289;48.572;13.378;2023-03-25T16:48:39;5.35;;;1.95;;
48487;SDS011;34289;48.572;13.378;2023-03-25T16:53:43;1.55;;;0.90;;
48487;SDS011;34289;48.572;13.378;2023-03-25T17:01:32;1.02;;;0.93;;
48487;SDS011;34289;48.572;13.378;2023-03-25T17:04:18;1.95;;;0.88;;
48487;SDS011;34289;48.572;13.378;2023-03-25T17:06:53;4.32;;;1.10;;
48487;SDS011;34289;48.572;13.378;2023-03-25T17:09:28;2.65;;;1.25;;
48487;SDS011;34289;48.572;13.378;2023-03-25T17:11:58;1.80;;;1.25;;
48487;SDS011;34289;48.572;13.378;2023-03-25T17:14:28;1.58;;;1.00;;
48487;SDS011;34289;48.572;13.378;2023-03-25T17:16:57;3.83;;;1.15;;
48487;SDS011;34289;48.572;13.378;2023-03-25T17:19:31;1.77;;;1.10;;
48487;SDS011;34289;48.572;13.378;2023-03-25T17:22:01;2.38;;;0.88;;
48487;SDS011;34289;48.572;13.378;2023-03-25T17:24:48;1.13;;;0.85;;
48487;SDS011;34289;48.572;13.378;2023-03-25T17:27:33;2.58;;;0.82;;
48487;SDS011;34289;48.572;13.378;2023-03-25T17:30:31;4.78;;;1.20;;
48487;SDS011;34289;48.572;13.378;2023-03-25T17:32:52;1.42;;;1.15;;
48487;SDS011;34289;48.572;13.378;2023-03-25T17:35:24;1.95;;;1.00;;
48487;SDS011;34289;48.572;13.378;2023-03-25T17:37:54;3.30;;;1.10;;
48487;SDS011;34289;48.572;13.378;2023-03-25T17:40:25;2.22;;;1.20;;
48487;SDS011;34289;48.572;13.378;2023-03-25T17:42:52;2.90;;;0.90;;
48487;SDS011;34289;48.572;13.378;2023-03-25T17:45:18;3.80;;;1.13;;
48487;SDS011;34289;48.572;13.378;2023-03-25T17:47:47;1.95;;;1.05;;
48487;SDS011;34289;48.572;13.378;2023-03-25T17:50:14;1.88;;;1.00;;